• Join FlightAware (Why Join?)
  • Login
  • US Flag 
08:25AM EST


 

Airport Tracker/Info


-or-


 

Live Flight TrackerFlight Track Log ✈ SWA983 ✈ 16-Apr-2013 ✈ KBWI - KISP

Flight Track Log - Related Links

Times and Time Zones

All times are in EDT time to prevent confusion due to time zone crossing. See the SWA983 flight status page for this flight to view local times or setup timezone preferences in your user account.

Time Position Orientation Groundspeed Altitude Reporting Facility
EDT Latitude Longitude Course Direction KTS MPH feet Rate Location/Type
03:24PM 39.0850 -76.5194 76° East 192 221 5,600  Level Washington Center
03:25PM 39.0481 -76.4228 116° Southeast 256 295 7,200 2,400 Climbing Washington Center
03:26PM 39.0319 -76.3211 101° East 262 302 10,500 2,940 Climbing Washington Center
03:27PM 39.0389 -76.1956 86° East 301 346 13,100 2,940 Climbing Washington Center
03:28PM 39.0333 -76.0050 90° East  Level FlightAware Approximate
03:28PM 39.0458 -76.0619 86° East 339 390 16,400  Level Washington Center
03:29PM 39.0433 -75.8834 76° East  Level FlightAware Approximate
03:29PM 39.0525 -75.9203 86° East 374 430 19,100  Level Washington Center
03:30PM 39.0569 -75.7786 88° East 391 450 21,000 900 Climbing Washington Center
03:31PM 39.0633 -75.6369 87° East 396 456 21,000  Level Washington Center
03:32PM 39.0694 -75.4953 87° East 396 456 21,000  Level Washington Center
03:33PM 39.0778 -75.3589 85° East 391 450 21,000  Level Washington Center
03:34PM 39.1211 -75.2331 66° East 379 436 21,000  Level Washington Center
03:35PM 39.1708 -75.1044 63° Northeast 379 436 21,000  Level Washington Center
03:36PM 39.2161 -74.9781 65° Northeast 379 436 21,000  Level Washington Center
03:37PM 39.2631 -74.8517 64° Northeast 384 442 21,000  Level Washington Center
03:38PM 39.3083 -74.7278 65° Northeast 384 442 21,000  Level Washington Center
03:40PM 39.3939 -74.4994 64° Northeast 380 437 21,000  Level New York Center
03:41PM 39.4394 -74.3731 65° Northeast 380 437 21,000  Level New York Center
03:42PM 39.4850 -74.2461 65° Northeast 380 437 21,000  Level New York Center
03:43PM 39.5367 -74.1194 62° Northeast 380 437 21,000 -360 Level New York Center
03:44PM 39.6042 -74.0122 51° Northeast 380 437 20,400 -840 Descending New York Center
03:45PM 39.6697 -73.9100 50° Northeast 374 430 19,400 -1,080 Descending New York Center
03:46PM 39.7369 -73.8078 49° Northeast 374 430 18,300 -900 Descending New York Center
03:47PM 39.7997 -73.7106 50° Northeast 369 425 17,700 -960 Descending New York Center
03:48PM 39.8694 -73.5944 52° Northeast 369 425 16,400 -1,140 Descending New York Center
03:49PM 39.9361 -73.5053 46° Northeast 355 409 15,500 -960 Descending New York Center
03:50PM 39.9961 -73.4317 43° Northeast 342 394 14,600 -1,140 Descending New York Center
03:51PM 40.0647 -73.3475 43° Northeast 326 375 13,300 -1,440 Descending New York Center
03:53PM 40.2203 -73.1628 42° Northeast 315 362 10,000 -1,020 Descending Boston Center
03:55PM 40.3500 -73.0167 41° Northeast 291 335 9,000 -540 Descending New York TRACON
03:56PM 40.4000 -72.9333 52° Northeast 294 338 8,400 -840 Descending New York TRACON
03:57PM 40.4833 -72.9167 North 285 328 7,400 -1,020 Descending New York TRACON
03:58PM 40.5667 -72.8833 17° North 287 330 6,400 -1,020 Descending New York TRACON
03:59PM 40.6333 -72.8667 11° North 284 327 5,400 -1,020 Descending New York TRACON
04:00PM 40.7167 -72.8500 North 278 320 4,400 -960 Descending New York TRACON
04:01PM 40.7833 -72.8500 360° North 270 311 3,500 -660 Descending New York TRACON
04:02PM 40.8500 -72.8833 339° North 223 257 3,100 -480 Descending New York TRACON
04:04PM 40.9000 -72.9000 346° North 183 211 2,500 -600 Descending New York TRACON
04:04PM 40.9000 -72.9500 270° West 151 174 2,000 -300 Descending New York TRACON
04:05PM 40.8833 -73.0000 246° West 142 163 2,000  Level New York TRACON